sensor_id;sensor_type;location;lat;lon;timestamp;P1;durP1;ratioP1;P2;durP2;ratioP2
21480;SDS011;10902;48.158;8.634;2023-07-22T00:00:40;7.13;;;3.78;;
21480;SDS011;10902;48.158;8.634;2023-07-22T00:03:25;7.00;;;3.38;;
21480;SDS011;10902;48.158;8.634;2023-07-22T00:06:11;7.22;;;3.75;;
21480;SDS011;10902;48.158;8.634;2023-07-22T00:08:57;8.02;;;3.97;;
21480;SDS011;10902;48.158;8.634;2023-07-22T00:11:42;6.72;;;4.13;;
21480;SDS011;10902;48.158;8.634;2023-07-22T00:14:28;7.28;;;4.20;;
21480;SDS011;10902;48.158;8.634;2023-07-22T00:17:14;6.55;;;4.00;;
21480;SDS011;10902;48.158;8.634;2023-07-22T00:19:59;7.32;;;4.15;;
21480;SDS011;10902;48.158;8.634;2023-07-22T00:22:45;7.25;;;4.22;;
21480;SDS011;10902;48.158;8.634;2023-07-22T00:25:30;8.02;;;4.40;;
21480;SDS011;10902;48.158;8.634;2023-07-22T00:28:16;6.20;;;4.22;;
21480;SDS011;10902;48.158;8.634;2023-07-22T00:31:03;6.70;;;3.80;;
21480;SDS011;10902;48.158;8.634;2023-07-22T00:33:49;6.10;;;3.55;;
21480;SDS011;10902;48.158;8.634;2023-07-22T00:36:34;7.70;;;4.18;;
21480;SDS011;10902;48.158;8.634;2023-07-22T00:39:20;7.80;;;3.85;;
21480;SDS011;10902;48.158;8.634;2023-07-22T00:42:05;9.95;;;4.25;;
21480;SDS011;10902;48.158;8.634;2023-07-22T00:44:53;7.78;;;4.20;;
21480;SDS011;10902;48.158;8.634;2023-07-22T00:47:38;6.72;;;4.05;;
21480;SDS011;10902;48.158;8.634;2023-07-22T00:50:24;7.45;;;3.95;;
21480;SDS011;10902;48.158;8.634;2023-07-22T00:53:10;7.10;;;4.13;;
21480;SDS011;10902;48.158;8.634;2023-07-22T00:55:56;7.93;;;4.07;;
21480;SDS011;10902;48.158;8.634;2023-07-22T00:58:42;7.97;;;4.22;;
21480;SDS011;10902;48.158;8.634;2023-07-22T01:01:28;6.75;;;3.70;;
21480;SDS011;10902;48.158;8.634;2023-07-22T01:04:13;6.22;;;3.78;;
21480;SDS011;10902;48.158;8.634;2023-07-22T01:07:01;7.95;;;4.15;;
21480;SDS011;10902;48.158;8.634;2023-07-22T01:09:55;8.93;;;4.10;;
21480;SDS011;10902;48.158;8.634;2023-07-22T01:12:42;8.20;;;4.10;;
21480;SDS011;10902;48.158;8.634;2023-07-22T01:15:29;9.02;;;4.45;;
21480;SDS011;10902;48.158;8.634;2023-07-22T01:18:15;7.53;;;4.40;;
21480;SDS011;10902;48.158;8.634;2023-07-22T01:21:02;6.85;;;4.45;;
21480;SDS011;10902;48.158;8.634;2023-07-22T01:23:48;10.40;;;5.35;;
21480;SDS011;10902;48.158;8.634;2023-07-22T01:26:34;9.13;;;4.80;;
21480;SDS011;10902;48.158;8.634;2023-07-22T01:29:21;7.07;;;4.88;;
21480;SDS011;10902;48.158;8.634;2023-07-22T01:32:07;7.97;;;5.53;;
21480;SDS011;10902;48.158;8.634;2023-07-22T01:34:52;8.68;;;5.20;;
21480;SDS011;10902;48.158;8.634;2023-07-22T01:37:38;10.27;;;5.75;;
21480;SDS011;10902;48.158;8.634;2023-07-22T01:40:24;7.55;;;4.80;;
21480;SDS011;10902;48.158;8.634;2023-07-22T01:43:10;9.82;;;4.55;;
21480;SDS011;10902;48.158;8.634;2023-07-22T01:45:56;7.78;;;5.28;;
21480;SDS011;10902;48.158;8.634;2023-07-22T01:48:41;8.25;;;5.07;;
21480;SDS011;10902;48.158;8.634;2023-07-22T01:51:27;7.70;;;4.65;;
21480;SDS011;10902;48.158;8.634;2023-07-22T01:54:13;8.98;;;5.00;;
21480;SDS011;10902;48.158;8.634;2023-07-22T01:56:58;7.60;;;4.85;;
21480;SDS011;10902;48.158;8.634;2023-07-22T01:59:44;8.38;;;4.93;;
21480;SDS011;10902;48.158;8.634;2023-07-22T02:02:30;7.15;;;4.32;;
21480;SDS011;10902;48.158;8.634;2023-07-22T02:05:15;9.70;;;4.85;;
21480;SDS011;10902;48.158;8.634;2023-07-22T02:08:01;7.18;;;4.50;;
21480;SDS011;10902;48.158;8.634;2023-07-22T02:10:46;7.70;;;4.80;;
21480;SDS011;10902;48.158;8.634;2023-07-22T02:13:33;7.82;;;5.18;;
21480;SDS011;10902;48.158;8.634;2023-07-22T02:16:19;11.15;;;5.65;;
21480;SDS011;10902;48.158;8.634;2023-07-22T02:19:05;10.18;;;6.93;;
21480;SDS011;10902;48.158;8.634;2023-07-22T02:21:50;10.63;;;6.88;;
21480;SDS011;10902;48.158;8.634;2023-07-22T02:24:36;8.00;;;5.47;;
21480;SDS011;10902;48.158;8.634;2023-07-22T02:27:22;8.82;;;5.60;;
21480;SDS011;10902;48.158;8.634;2023-07-22T02:30:07;9.88;;;5.60;;
21480;SDS011;10902;48.158;8.634;2023-07-22T02:32:55;10.23;;;6.28;;
21480;SDS011;10902;48.158;8.634;2023-07-22T02:35:41;8.60;;;4.97;;
21480;SDS011;10902;48.158;8.634;2023-07-22T02:38:27;9.68;;;5.78;;
21480;SDS011;10902;48.158;8.634;2023-07-22T02:41:12;9.02;;;5.10;;
21480;SDS011;10902;48.158;8.634;2023-07-22T02:43:58;9.10;;;4.82;;
21480;SDS011;10902;48.158;8.634;2023-07-22T02:46:43;8.68;;;4.78;;
21480;SDS011;10902;48.158;8.634;2023-07-22T02:49:29;7.40;;;4.85;;
21480;SDS011;10902;48.158;8.634;2023-07-22T02:52:15;7.47;;;4.93;;
21480;SDS011;10902;48.158;8.634;2023-07-22T02:55:05;8.45;;;5.20;;
21480;SDS011;10902;48.158;8.634;2023-07-22T02:57:52;7.95;;;4.55;;
21480;SDS011;10902;48.158;8.634;2023-07-22T03:00:37;7.20;;;4.50;;
21480;SDS011;10902;48.158;8.634;2023-07-22T03:03:23;7.57;;;4.82;;
21480;SDS011;10902;48.158;8.634;2023-07-22T03:06:09;6.78;;;4.45;;
21480;SDS011;10902;48.158;8.634;2023-07-22T03:08:54;7.32;;;4.40;;
21480;SDS011;10902;48.158;8.634;2023-07-22T03:11:40;8.88;;;4.78;;
21480;SDS011;10902;48.158;8.634;2023-07-22T03:14:26;7.60;;;4.95;;
21480;SDS011;10902;48.158;8.634;2023-07-22T03:17:11;8.57;;;5.03;;
21480;SDS011;10902;48.158;8.634;2023-07-22T03:20:02;10.50;;;5.30;;
21480;SDS011;10902;48.158;8.634;2023-07-22T03:22:53;9.70;;;5.80;;
21480;SDS011;10902;48.158;8.634;2023-07-22T03:25:39;11.23;;;6.28;;
21480;SDS011;10902;48.158;8.634;2023-07-22T03:28:26;9.93;;;6.65;;
21480;SDS011;10902;48.158;8.634;2023-07-22T03:31:11;9.68;;;6.30;;
21480;SDS011;10902;48.158;8.634;2023-07-22T03:33:57;9.23;;;6.38;;
21480;SDS011;10902;48.158;8.634;2023-07-22T03:36:43;10.00;;;6.68;;
21480;SDS011;10902;48.158;8.634;2023-07-22T03:39:28;9.70;;;6.20;;
21480;SDS011;10902;48.158;8.634;2023-07-22T03:42:14;12.20;;;8.02;;
21480;SDS011;10902;48.158;8.634;2023-07-22T03:44:59;11.63;;;8.80;;
21480;SDS011;10902;48.158;8.634;2023-07-22T03:47:46;14.32;;;10.20;;
21480;SDS011;10902;48.158;8.634;2023-07-22T03:50:35;14.40;;;10.48;;
21480;SDS011;10902;48.158;8.634;2023-07-22T03:53:20;14.82;;;9.85;;
21480;SDS011;10902;48.158;8.634;2023-07-22T03:56:06;12.68;;;9.20;;
21480;SDS011;10902;48.158;8.634;2023-07-22T03:58:51;12.57;;;8.77;;
21480;SDS011;10902;48.158;8.634;2023-07-22T04:01:37;13.32;;;8.70;;
21480;SDS011;10902;48.158;8.634;2023-07-22T04:04:23;12.30;;;9.52;;
21480;SDS011;10902;48.158;8.634;2023-07-22T04:07:09;13.70;;;10.30;;
21480;SDS011;10902;48.158;8.634;2023-07-22T04:09:54;13.75;;;8.85;;
21480;SDS011;10902;48.158;8.634;2023-07-22T04:12:40;13.73;;;8.65;;
21480;SDS011;10902;48.158;8.634;2023-07-22T04:15:25;13.32;;;8.88;;
21480;SDS011;10902;48.158;8.634;2023-07-22T04:18:11;11.98;;;8.98;;
21480;SDS011;10902;48.158;8.634;2023-07-22T04:20:56;11.02;;;7.10;;
21480;SDS011;10902;48.158;8.634;2023-07-22T04:23:42;11.35;;;7.95;;
21480;SDS011;10902;48.158;8.634;2023-07-22T04:26:28;9.02;;;6.20;;
21480;SDS011;10902;48.158;8.634;2023-07-22T04:29:14;8.68;;;5.72;;
21480;SDS011;10902;48.158;8.634;2023-07-22T04:32:00;9.27;;;5.85;;
21480;SDS011;10902;48.158;8.634;2023-07-22T04:34:46;9.25;;;6.05;;
21480;SDS011;10902;48.158;8.634;2023-07-22T04:37:32;9.15;;;6.05;;
21480;SDS011;10902;48.158;8.634;2023-07-22T04:40:18;9.73;;;5.68;;
21480;SDS011;10902;48.158;8.634;2023-07-22T04:43:04;8.68;;;5.18;;
21480;SDS011;10902;48.158;8.634;2023-07-22T04:45:50;7.80;;;5.13;;
21480;SDS011;10902;48.158;8.634;2023-07-22T04:48:35;8.70;;;5.43;;
21480;SDS011;10902;48.158;8.634;2023-07-22T04:51:22;8.50;;;5.57;;
21480;SDS011;10902;48.158;8.634;2023-07-22T04:54:07;7.43;;;4.53;;
21480;SDS011;10902;48.158;8.634;2023-07-22T04:56:53;7.97;;;4.65;;
21480;SDS011;10902;48.158;8.634;2023-07-22T04:59:38;10.18;;;4.97;;
21480;SDS011;10902;48.158;8.634;2023-07-22T05:02:24;7.82;;;4.53;;
21480;SDS011;10902;48.158;8.634;2023-07-22T05:05:09;7.28;;;4.00;;
21480;SDS011;10902;48.158;8.634;2023-07-22T05:07:55;6.45;;;4.30;;
21480;SDS011;10902;48.158;8.634;2023-07-22T05:10:41;8.98;;;4.75;;
21480;SDS011;10902;48.158;8.634;2023-07-22T05:13:27;7.35;;;4.13;;
21480;SDS011;10902;48.158;8.634;2023-07-22T05:16:13;7.35;;;4.57;;
21480;SDS011;10902;48.158;8.634;2023-07-22T05:18:58;7.80;;;4.38;;
21480;SDS011;10902;48.158;8.634;2023-07-22T05:21:44;6.88;;;4.10;;
21480;SDS011;10902;48.158;8.634;2023-07-22T05:24:29;8.80;;;4.30;;
21480;SDS011;10902;48.158;8.634;2023-07-22T05:27:15;8.40;;;4.10;;
21480;SDS011;10902;48.158;8.634;2023-07-22T05:30:02;8.20;;;4.40;;
21480;SDS011;10902;48.158;8.634;2023-07-22T05:32:51;5.80;;;3.85;;
21480;SDS011;10902;48.158;8.634;2023-07-22T05:35:37;6.57;;;3.67;;
21480;SDS011;10902;48.158;8.634;2023-07-22T05:38:23;6.93;;;3.70;;
21480;SDS011;10902;48.158;8.634;2023-07-22T05:41:08;8.65;;;3.70;;
21480;SDS011;10902;48.158;8.634;2023-07-22T05:43:54;7.57;;;3.72;;
21480;SDS011;10902;48.158;8.634;2023-07-22T05:46:40;8.25;;;3.53;;
21480;SDS011;10902;48.158;8.634;2023-07-22T05:49:25;7.47;;;3.08;;
21480;SDS011;10902;48.158;8.634;2023-07-22T05:52:11;9.68;;;3.75;;
21480;SDS011;10902;48.158;8.634;2023-07-22T05:54:56;5.50;;;3.33;;
21480;SDS011;10902;48.158;8.634;2023-07-22T05:57:42;6.05;;;3.03;;
21480;SDS011;10902;48.158;8.634;2023-07-22T06:00:28;7.85;;;3.25;;
21480;SDS011;10902;48.158;8.634;2023-07-22T06:03:14;5.93;;;3.10;;
21480;SDS011;10902;48.158;8.634;2023-07-22T06:05:59;7.95;;;3.42;;
21480;SDS011;10902;48.158;8.634;2023-07-22T06:08:45;8.50;;;3.47;;
21480;SDS011;10902;48.158;8.634;2023-07-22T06:11:30;7.35;;;3.05;;
21480;SDS011;10902;48.158;8.634;2023-07-22T06:14:16;7.07;;;3.22;;
21480;SDS011;10902;48.158;8.634;2023-07-22T06:17:02;7.68;;;3.35;;
21480;SDS011;10902;48.158;8.634;2023-07-22T06:19:48;8.00;;;3.22;;
21480;SDS011;10902;48.158;8.634;2023-07-22T06:22:33;5.38;;;2.97;;
21480;SDS011;10902;48.158;8.634;2023-07-22T06:25:19;8.98;;;3.58;;
21480;SDS011;10902;48.158;8.634;2023-07-22T06:28:05;8.63;;;3.40;;
21480;SDS011;10902;48.158;8.634;2023-07-22T06:30:51;9.13;;;3.53;;
21480;SDS011;10902;48.158;8.634;2023-07-22T06:33:37;6.85;;;3.17;;
21480;SDS011;10902;48.158;8.634;2023-07-22T06:36:22;7.53;;;3.40;;
21480;SDS011;10902;48.158;8.634;2023-07-22T06:39:08;7.63;;;2.72;;
21480;SDS011;10902;48.158;8.634;2023-07-22T06:41:54;8.93;;;2.88;;
21480;SDS011;10902;48.158;8.634;2023-07-22T06:44:39;11.80;;;3.20;;
21480;SDS011;10902;48.158;8.634;2023-07-22T06:47:25;6.95;;;2.80;;
21480;SDS011;10902;48.158;8.634;2023-07-22T06:50:10;5.68;;;2.70;;
21480;SDS011;10902;48.158;8.634;2023-07-22T06:52:56;5.38;;;2.38;;
21480;SDS011;10902;48.158;8.634;2023-07-22T06:55:48;6.72;;;2.70;;
21480;SDS011;10902;48.158;8.634;2023-07-22T06:58:35;6.43;;;2.53;;
21480;SDS011;10902;48.158;8.634;2023-07-22T07:01:20;5.57;;;2.50;;
21480;SDS011;10902;48.158;8.634;2023-07-22T07:04:06;8.15;;;2.60;;
21480;SDS011;10902;48.158;8.634;2023-07-22T07:06:52;7.93;;;2.67;;
21480;SDS011;10902;48.158;8.634;2023-07-22T07:09:38;6.20;;;2.10;;
21480;SDS011;10902;48.158;8.634;2023-07-22T07:12:23;6.30;;;1.95;;
21480;SDS011;10902;48.158;8.634;2023-07-22T07:15:09;7.75;;;2.10;;
21480;SDS011;10902;48.158;8.634;2023-07-22T07:17:55;7.80;;;2.25;;
21480;SDS011;10902;48.158;8.634;2023-07-22T07:20:41;8.15;;;2.65;;
21480;SDS011;10902;48.158;8.634;2023-07-22T07:23:26;6.43;;;2.60;;
21480;SDS011;10902;48.158;8.634;2023-07-22T07:26:12;9.18;;;2.53;;
21480;SDS011;10902;48.158;8.634;2023-07-22T07:28:58;7.38;;;2.15;;
21480;SDS011;10902;48.158;8.634;2023-07-22T07:31:43;5.97;;;1.95;;
21480;SDS011;10902;48.158;8.634;2023-07-22T07:34:29;5.07;;;1.60;;
21480;SDS011;10902;48.158;8.634;2023-07-22T07:37:14;4.32;;;1.70;;
21480;SDS011;10902;48.158;8.634;2023-07-22T07:40:00;4.22;;;1.50;;
21480;SDS011;10902;48.158;8.634;2023-07-22T07:42:46;4.90;;;1.60;;
21480;SDS011;10902;48.158;8.634;2023-07-22T07:45:32;3.95;;;1.40;;
21480;SDS011;10902;48.158;8.634;2023-07-22T07:48:17;3.78;;;1.63;;
21480;SDS011;10902;48.158;8.634;2023-07-22T07:51:03;6.13;;;1.95;;
21480;SDS011;10902;48.158;8.634;2023-07-22T07:53:48;3.88;;;1.45;;
21480;SDS011;10902;48.158;8.634;2023-07-22T07:56:34;5.00;;;1.35;;
21480;SDS011;10902;48.158;8.634;2023-07-22T07:59:20;3.97;;;1.50;;
21480;SDS011;10902;48.158;8.634;2023-07-22T08:02:06;3.17;;;1.25;;
21480;SDS011;10902;48.158;8.634;2023-07-22T08:04:54;4.00;;;1.58;;
21480;SDS011;10902;48.158;8.634;2023-07-22T08:07:40;4.15;;;1.33;;
21480;SDS011;10902;48.158;8.634;2023-07-22T08:10:25;4.45;;;1.73;;
21480;SDS011;10902;48.158;8.634;2023-07-22T08:13:11;4.78;;;1.73;;
21480;SDS011;10902;48.158;8.634;2023-07-22T08:16:03;4.45;;;1.50;;
21480;SDS011;10902;48.158;8.634;2023-07-22T08:18:49;4.22;;;1.40;;
21480;SDS011;10902;48.158;8.634;2023-07-22T08:21:35;3.80;;;1.30;;
21480;SDS011;10902;48.158;8.634;2023-07-22T08:24:20;3.60;;;1.20;;
21480;SDS011;10902;48.158;8.634;2023-07-22T08:27:06;2.88;;;1.10;;
21480;SDS011;10902;48.158;8.634;2023-07-22T08:29:51;4.95;;;1.67;;
21480;SDS011;10902;48.158;8.634;2023-07-22T08:32:37;3.33;;;1.27;;
21480;SDS011;10902;48.158;8.634;2023-07-22T08:35:23;2.92;;;1.20;;
21480;SDS011;10902;48.158;8.634;2023-07-22T08:38:09;4.13;;;1.52;;
21480;SDS011;10902;48.158;8.634;2023-07-22T08:40:55;3.58;;;1.35;;
21480;SDS011;10902;48.158;8.634;2023-07-22T08:43:41;2.90;;;1.30;;
21480;SDS011;10902;48.158;8.634;2023-07-22T08:46:29;5.05;;;1.20;;
21480;SDS011;10902;48.158;8.634;2023-07-22T08:49:18;5.22;;;1.10;;
21480;SDS011;10902;48.158;8.634;2023-07-22T08:52:04;2.90;;;1.10;;
21480;SDS011;10902;48.158;8.634;2023-07-22T08:54:50;2.88;;;1.23;;
21480;SDS011;10902;48.158;8.634;2023-07-22T08:57:37;5.65;;;1.58;;
21480;SDS011;10902;48.158;8.634;2023-07-22T09:00:24;3.67;;;1.13;;
21480;SDS011;10902;48.158;8.634;2023-07-22T09:03:11;3.05;;;1.35;;
21480;SDS011;10902;48.158;8.634;2023-07-22T09:05:56;3.00;;;1.10;;
21480;SDS011;10902;48.158;8.634;2023-07-22T09:08:42;2.60;;;1.10;;
21480;SDS011;10902;48.158;8.634;2023-07-22T09:11:28;4.85;;;1.40;;
21480;SDS011;10902;48.158;8.634;2023-07-22T09:14:13;3.92;;;1.40;;
21480;SDS011;10902;48.158;8.634;2023-07-22T09:17:00;3.35;;;1.30;;
21480;SDS011;10902;48.158;8.634;2023-07-22T09:19:45;3.13;;;1.30;;
21480;SDS011;10902;48.158;8.634;2023-07-22T09:22:31;3.58;;;1.30;;
21480;SDS011;10902;48.158;8.634;2023-07-22T09:28:04;3.80;;;1.30;;
21480;SDS011;10902;48.158;8.634;2023-07-22T09:30:49;3.42;;;1.30;;
21480;SDS011;10902;48.158;8.634;2023-07-22T09:33:47;3.15;;;1.40;;
21480;SDS011;10902;48.158;8.634;2023-07-22T09:36:32;4.20;;;1.70;;
21480;SDS011;10902;48.158;8.634;2023-07-22T09:39:41;3.15;;;1.20;;
21480;SDS011;10902;48.158;8.634;2023-07-22T09:42:32;4.40;;;1.60;;
21480;SDS011;10902;48.158;8.634;2023-07-22T09:45:18;4.72;;;1.67;;
21480;SDS011;10902;48.158;8.634;2023-07-22T09:48:06;4.03;;;1.30;;
21480;SDS011;10902;48.158;8.634;2023-07-22T09:50:57;3.38;;;1.48;;
21480;SDS011;10902;48.158;8.634;2023-07-22T09:53:44;4.78;;;1.73;;
21480;SDS011;10902;48.158;8.634;2023-07-22T09:56:42;4.35;;;1.63;;
21480;SDS011;10902;48.158;8.634;2023-07-22T09:59:32;3.65;;;1.58;;
21480;SDS011;10902;48.158;8.634;2023-07-22T10:02:18;3.40;;;1.58;;
21480;SDS011;10902;48.158;8.634;2023-07-22T10:05:07;3.42;;;1.58;;
21480;SDS011;10902;48.158;8.634;2023-07-22T10:08:07;3.33;;;1.20;;
21480;SDS011;10902;48.158;8.634;2023-07-22T10:10:55;4.47;;;1.40;;
21480;SDS011;10902;48.158;8.634;2023-07-22T10:13:42;3.90;;;1.58;;
21480;SDS011;10902;48.158;8.634;2023-07-22T10:16:29;4.03;;;1.50;;
21480;SDS011;10902;48.158;8.634;2023-07-22T10:19:15;3.47;;;1.48;;
21480;SDS011;10902;48.158;8.634;2023-07-22T10:22:02;4.60;;;1.92;;
21480;SDS011;10902;48.158;8.634;2023-07-22T10:24:49;3.67;;;1.50;;
21480;SDS011;10902;48.158;8.634;2023-07-22T10:27:35;6.18;;;1.60;;
21480;SDS011;10902;48.158;8.634;2023-07-22T10:30:21;5.28;;;1.65;;
21480;SDS011;10902;48.158;8.634;2023-07-22T10:33:06;3.85;;;1.38;;
21480;SDS011;10902;48.158;8.634;2023-07-22T10:36:05;3.35;;;1.25;;
21480;SDS011;10902;48.158;8.634;2023-07-22T10:38:56;4.03;;;1.40;;
21480;SDS011;10902;48.158;8.634;2023-07-22T10:41:46;4.05;;;1.58;;
21480;SDS011;10902;48.158;8.634;2023-07-22T10:44:38;4.82;;;1.52;;
21480;SDS011;10902;48.158;8.634;2023-07-22T10:47:34;4.40;;;1.50;;
21480;SDS011;10902;48.158;8.634;2023-07-22T10:50:21;4.50;;;1.60;;
21480;SDS011;10902;48.158;8.634;2023-07-22T10:53:10;5.18;;;1.88;;
21480;SDS011;10902;48.158;8.634;2023-07-22T10:58:55;5.25;;;1.83;;
21480;SDS011;10902;48.158;8.634;2023-07-22T11:01:43;4.38;;;1.92;;
21480;SDS011;10902;48.158;8.634;2023-07-22T11:04:30;4.47;;;1.88;;
21480;SDS011;10902;48.158;8.634;2023-07-22T11:07:16;4.10;;;1.77;;
21480;SDS011;10902;48.158;8.634;2023-07-22T11:10:16;3.67;;;1.77;;
21480;SDS011;10902;48.158;8.634;2023-07-22T11:13:03;4.80;;;1.77;;
21480;SDS011;10902;48.158;8.634;2023-07-22T11:15:49;4.95;;;1.80;;
21480;SDS011;10902;48.158;8.634;2023-07-22T11:18:36;6.07;;;1.90;;
21480;SDS011;10902;48.158;8.634;2023-07-22T11:21:22;4.90;;;2.00;;
21480;SDS011;10902;48.158;8.634;2023-07-22T11:24:08;3.72;;;1.60;;
21480;SDS011;10902;48.158;8.634;2023-07-22T11:26:53;5.47;;;2.22;;
21480;SDS011;10902;48.158;8.634;2023-07-22T11:29:39;4.70;;;2.20;;
21480;SDS011;10902;48.158;8.634;2023-07-22T11:32:25;4.07;;;1.95;;
21480;SDS011;10902;48.158;8.634;2023-07-22T11:35:11;4.90;;;2.30;;
21480;SDS011;10902;48.158;8.634;2023-07-22T11:38:00;4.13;;;2.17;;
21480;SDS011;10902;48.158;8.634;2023-07-22T11:40:47;4.85;;;2.33;;
21480;SDS011;10902;48.158;8.634;2023-07-22T11:43:34;5.05;;;2.22;;
21480;SDS011;10902;48.158;8.634;2023-07-22T11:46:19;6.95;;;2.58;;
21480;SDS011;10902;48.158;8.634;2023-07-22T11:49:06;4.03;;;1.95;;
21480;SDS011;10902;48.158;8.634;2023-07-22T11:52:02;4.10;;;1.88;;
21480;SDS011;10902;48.158;8.634;2023-07-22T11:54:49;4.15;;;1.92;;
21480;SDS011;10902;48.158;8.634;2023-07-22T11:57:34;5.22;;;2.28;;
21480;SDS011;10902;48.158;8.634;2023-07-22T12:00:20;5.15;;;2.67;;
21480;SDS011;10902;48.158;8.634;2023-07-22T12:03:06;6.05;;;2.25;;
21480;SDS011;10902;48.158;8.634;2023-07-22T12:05:52;5.28;;;1.88;;
21480;SDS011;10902;48.158;8.634;2023-07-22T12:08:48;4.00;;;2.20;;
21480;SDS011;10902;48.158;8.634;2023-07-22T12:11:34;4.82;;;2.00;;
21480;SDS011;10902;48.158;8.634;2023-07-22T12:14:19;4.70;;;2.22;;
21480;SDS011;10902;48.158;8.634;2023-07-22T12:17:07;4.28;;;2.13;;
21480;SDS011;10902;48.158;8.634;2023-07-22T12:19:54;4.28;;;2.10;;
21480;SDS011;10902;48.158;8.634;2023-07-22T12:22:40;4.38;;;1.85;;
21480;SDS011;10902;48.158;8.634;2023-07-22T12:25:26;4.82;;;2.20;;
21480;SDS011;10902;48.158;8.634;2023-07-22T12:28:12;4.63;;;2.40;;
21480;SDS011;10902;48.158;8.634;2023-07-22T12:30:58;5.57;;;2.35;;
21480;SDS011;10902;48.158;8.634;2023-07-22T12:33:43;5.05;;;2.50;;
21480;SDS011;10902;48.158;8.634;2023-07-22T12:36:30;3.75;;;1.90;;
21480;SDS011;10902;48.158;8.634;2023-07-22T12:39:15;5.97;;;2.25;;
21480;SDS011;10902;48.158;8.634;2023-07-22T12:42:01;5.35;;;2.22;;
21480;SDS011;10902;48.158;8.634;2023-07-22T12:44:47;4.93;;;2.40;;
21480;SDS011;10902;48.158;8.634;2023-07-22T12:47:32;5.38;;;2.70;;
21480;SDS011;10902;48.158;8.634;2023-07-22T12:50:18;5.85;;;2.80;;
21480;SDS011;10902;48.158;8.634;2023-07-22T12:53:03;5.78;;;2.70;;
21480;SDS011;10902;48.158;8.634;2023-07-22T12:55:49;4.57;;;2.60;;
21480;SDS011;10902;48.158;8.634;2023-07-22T12:58:35;5.43;;;2.60;;
21480;SDS011;10902;48.158;8.634;2023-07-22T13:01:20;5.35;;;2.78;;
21480;SDS011;10902;48.158;8.634;2023-07-22T13:04:06;6.13;;;2.70;;
21480;SDS011;10902;48.158;8.634;2023-07-22T13:06:52;5.28;;;3.10;;
21480;SDS011;10902;48.158;8.634;2023-07-22T13:09:37;5.38;;;2.60;;
21480;SDS011;10902;48.158;8.634;2023-07-22T13:12:23;4.90;;;2.63;;
21480;SDS011;10902;48.158;8.634;2023-07-22T13:15:08;6.20;;;2.60;;
21480;SDS011;10902;48.158;8.634;2023-07-22T13:17:55;5.40;;;2.47;;
21480;SDS011;10902;48.158;8.634;2023-07-22T13:20:40;5.13;;;2.65;;
21480;SDS011;10902;48.158;8.634;2023-07-22T13:23:26;5.35;;;2.70;;
21480;SDS011;10902;48.158;8.634;2023-07-22T13:26:11;6.10;;;3.03;;
21480;SDS011;10902;48.158;8.634;2023-07-22T13:28:57;4.82;;;2.72;;
21480;SDS011;10902;48.158;8.634;2023-07-22T13:31:43;5.55;;;2.47;;
21480;SDS011;10902;48.158;8.634;2023-07-22T13:34:28;4.90;;;2.72;;
21480;SDS011;10902;48.158;8.634;2023-07-22T13:37:14;4.72;;;2.33;;
21480;SDS011;10902;48.158;8.634;2023-07-22T13:39:59;5.18;;;2.50;;
21480;SDS011;10902;48.158;8.634;2023-07-22T13:42:45;6.05;;;3.00;;
21480;SDS011;10902;48.158;8.634;2023-07-22T13:45:31;5.63;;;2.40;;
21480;SDS011;10902;48.158;8.634;2023-07-22T13:48:17;4.95;;;2.70;;
21480;SDS011;10902;48.158;8.634;2023-07-22T13:51:03;4.75;;;2.60;;
21480;SDS011;10902;48.158;8.634;2023-07-22T13:53:48;5.13;;;2.72;;
21480;SDS011;10902;48.158;8.634;2023-07-22T13:56:34;4.38;;;2.50;;
21480;SDS011;10902;48.158;8.634;2023-07-22T13:59:20;4.70;;;2.67;;
21480;SDS011;10902;48.158;8.634;2023-07-22T14:02:05;4.63;;;2.50;;
21480;SDS011;10902;48.158;8.634;2023-07-22T14:04:51;4.95;;;2.60;;
21480;SDS011;10902;48.158;8.634;2023-07-22T14:07:38;4.10;;;2.35;;
21480;SDS011;10902;48.158;8.634;2023-07-22T14:10:24;4.35;;;2.00;;
21480;SDS011;10902;48.158;8.634;2023-07-22T14:13:10;5.25;;;2.55;;
21480;SDS011;10902;48.158;8.634;2023-07-22T14:15:55;5.32;;;2.67;;
21480;SDS011;10902;48.158;8.634;2023-07-22T14:18:41;5.25;;;2.65;;
21480;SDS011;10902;48.158;8.634;2023-07-22T14:21:27;4.70;;;2.13;;
21480;SDS011;10902;48.158;8.634;2023-07-22T14:24:13;5.38;;;2.30;;
21480;SDS011;10902;48.158;8.634;2023-07-22T14:26:58;4.47;;;2.40;;
21480;SDS011;10902;48.158;8.634;2023-07-22T14:29:44;4.43;;;2.28;;
21480;SDS011;10902;48.158;8.634;2023-07-22T14:32:29;4.55;;;2.40;;
21480;SDS011;10902;48.158;8.634;2023-07-22T14:35:15;5.13;;;2.65;;
21480;SDS011;10902;48.158;8.634;2023-07-22T14:38:01;4.60;;;2.45;;
21480;SDS011;10902;48.158;8.634;2023-07-22T14:40:46;5.07;;;2.65;;
21480;SDS011;10902;48.158;8.634;2023-07-22T14:43:32;5.00;;;2.90;;
21480;SDS011;10902;48.158;8.634;2023-07-22T14:46:18;4.53;;;2.28;;
21480;SDS011;10902;48.158;8.634;2023-07-22T14:49:04;5.57;;;2.25;;
21480;SDS011;10902;48.158;8.634;2023-07-22T14:51:54;4.88;;;2.60;;
21480;SDS011;10902;48.158;8.634;2023-07-22T14:54:39;4.80;;;2.83;;
21480;SDS011;10902;48.158;8.634;2023-07-22T14:57:25;7.35;;;2.90;;
21480;SDS011;10902;48.158;8.634;2023-07-22T15:00:16;5.00;;;2.70;;
21480;SDS011;10902;48.158;8.634;2023-07-22T15:03:03;4.43;;;2.50;;
21480;SDS011;10902;48.158;8.634;2023-07-22T15:05:48;5.60;;;2.70;;
21480;SDS011;10902;48.158;8.634;2023-07-22T15:08:34;4.95;;;2.47;;
21480;SDS011;10902;48.158;8.634;2023-07-22T15:11:19;4.25;;;2.40;;
21480;SDS011;10902;48.158;8.634;2023-07-22T15:14:05;4.57;;;2.63;;
21480;SDS011;10902;48.158;8.634;2023-07-22T15:16:51;4.65;;;2.35;;
21480;SDS011;10902;48.158;8.634;2023-07-22T15:19:36;5.40;;;2.30;;
21480;SDS011;10902;48.158;8.634;2023-07-22T15:22:22;4.82;;;2.30;;
21480;SDS011;10902;48.158;8.634;2023-07-22T15:25:07;4.20;;;2.20;;
21480;SDS011;10902;48.158;8.634;2023-07-22T15:27:53;5.47;;;2.30;;
21480;SDS011;10902;48.158;8.634;2023-07-22T15:30:39;3.92;;;1.90;;
21480;SDS011;10902;48.158;8.634;2023-07-22T15:33:24;5.65;;;1.90;;
21480;SDS011;10902;48.158;8.634;2023-07-22T15:36:10;4.80;;;2.00;;
21480;SDS011;10902;48.158;8.634;2023-07-22T15:38:56;4.05;;;2.20;;
21480;SDS011;10902;48.158;8.634;2023-07-22T15:41:41;5.10;;;2.20;;
21480;SDS011;10902;48.158;8.634;2023-07-22T15:44:27;4.40;;;2.17;;
21480;SDS011;10902;48.158;8.634;2023-07-22T15:47:12;5.70;;;2.42;;
21480;SDS011;10902;48.158;8.634;2023-07-22T15:49:58;4.45;;;2.17;;
21480;SDS011;10902;48.158;8.634;2023-07-22T15:52:44;5.63;;;1.92;;
21480;SDS011;10902;48.158;8.634;2023-07-22T15:55:30;4.10;;;1.92;;
21480;SDS011;10902;48.158;8.634;2023-07-22T15:58:16;4.57;;;1.80;;
21480;SDS011;10902;48.158;8.634;2023-07-22T16:01:02;4.13;;;1.85;;
21480;SDS011;10902;48.158;8.634;2023-07-22T16:03:47;3.45;;;1.83;;
21480;SDS011;10902;48.158;8.634;2023-07-22T16:06:33;4.55;;;1.73;;
21480;SDS011;10902;48.158;8.634;2023-07-22T16:09:18;3.45;;;1.50;;
21480;SDS011;10902;48.158;8.634;2023-07-22T16:12:04;3.40;;;1.60;;
21480;SDS011;10902;48.158;8.634;2023-07-22T16:14:50;4.45;;;1.90;;
21480;SDS011;10902;48.158;8.634;2023-07-22T16:17:36;7.18;;;1.98;;
21480;SDS011;10902;48.158;8.634;2023-07-22T16:20:21;5.00;;;1.92;;
21480;SDS011;10902;48.158;8.634;2023-07-22T16:23:07;3.83;;;1.50;;
21480;SDS011;10902;48.158;8.634;2023-07-22T16:25:52;3.15;;;1.30;;
21480;SDS011;10902;48.158;8.634;2023-07-22T16:28:38;4.10;;;1.70;;
21480;SDS011;10902;48.158;8.634;2023-07-22T16:31:23;4.18;;;1.42;;
21480;SDS011;10902;48.158;8.634;2023-07-22T16:34:09;3.83;;;1.63;;
21480;SDS011;10902;48.158;8.634;2023-07-22T16:36:55;3.10;;;1.35;;
21480;SDS011;10902;48.158;8.634;2023-07-22T16:39:40;3.15;;;1.17;;
21480;SDS011;10902;48.158;8.634;2023-07-22T16:42:26;3.85;;;1.38;;
21480;SDS011;10902;48.158;8.634;2023-07-22T16:45:11;4.43;;;1.48;;